This is the latest recevied weather packets stored in our database for station/object VK4AB-13. If no packets are shown the sender has not sent any weather packets the latest 1 day(s).
| Time | Temp. | Humidity | Pressure | Rain* | Wind** | Luminosity | Snow |
|---|---|---|---|---|---|---|---|
| 1778040225 | 26.11° C | 66% | 1014.8 hPa | 0 mm | - | 227 W/m² | - |
| 1778039925 | 26.11° C | 65% | 1014.9 hPa | 0 mm | - | 250 W/m² | - |
| 1778039625 | 26.11° C | 65% | 1014.8 hPa | 0 mm | - | 643 W/m² | - |
| 1778039025 | 26.11° C | 66% | 1014.9 hPa | 0 mm | - | 316 W/m² | - |
| 1778038725 | 25.56° C | 66% | 1015 hPa | 0 mm | - | 308 W/m² | - |
| 1778037825 | 25.56° C | 66% | 1015.1 hPa | 0 mm | - | 181 W/m² | - |
| 1778036925 | 26.11° C | 66% | 1015.2 hPa | 0 mm | - | 142 W/m² | - |
| 1778036325 | 26.11° C | 65% | 1015.2 hPa | 0 mm | - | 160 W/m² | - |
| 1778036025 | 26.67° C | 65% | 1015.2 hPa | 0 mm | - | 211 W/m² | - |
| 1778035125 | 26.67° C | 64% | 1015.4 hPa | 0 mm | - | 218 W/m² | - |
| 1778034525 | 26.67° C | 64% | 1015.5 hPa | 0 mm | - | 274 W/m² | - |
| 1778033325 | 26.67° C | 65% | 1015.8 hPa | 0 mm | - | 283 W/m² | - |
| 1778032125 | 26.11° C | 66% | 1016.2 hPa | 0 mm | - | 287 W/m² | - |
| 1778031525 | 26.11° C | 66% | 1016.3 hPa | 0 mm | - | 190 W/m² | - |
| 1778031225 | 26.11° C | 66% | 1016.4 hPa | 0 mm | - | 137 W/m² | - |
| 1778030026 | 26.11° C | 67% | 1016.6 hPa | 0 mm | - | 782 W/m² | - |
| 1778029725 | 26.11° C | 67% | 1016.7 hPa | 0 mm | - | 197 W/m² | - |
| 1778028826 | 26.11° C | 67% | 1016.8 hPa | 0 mm | - | 181 W/m² | - |
| 1778028226 | 26.67° C | 69% | 1016.9 hPa | 0 mm | - | 821 W/m² | - |
| 1778027325 | 25° C | 75% | 1017.1 hPa | 0 mm | - | 722 W/m² | - |
| 1778027026 | 24.44° C | 74% | 1017.2 hPa | 0 mm | - | 211 W/m² | - |
| 1778026726 | 25° C | 73% | 1017.3 hPa | 0 mm | - | 155 W/m² | - |
| 1778026426 | 25° C | 73% | 1017.3 hPa | 0 mm | - | 193 W/m² | - |
| 1778026126 | 25.56° C | 73% | 1017.3 hPa | 0 mm | - | 162 W/m² | - |
| 1778025526 | 25° C | 76% | 1017.4 hPa | 0 mm | - | 635 W/m² | - |
* Rain latest hour (hover to see other rain measurements)
** Current wind speed in m/s (hover to see current wind gust speed)